Time;durP1;ratioP1;P1;durP2;ratioP2;P2;SDS_P1;SDS_P2;PMS_P1;PMS_P2;Temp;Humidity;BMP_temperature;BMP_pressure;BME280_temperature;BME280_humidity;BME280_pressure;Samples;Min_cycle;Max_cycle;Signal;HPM_P1;HPM_P2
2023/07/04 00:01:51;;;;;;;9.85;2.30;;;14.50;99.90;;;;;;5072088;28;20031;-44
2023/07/04 00:04:20;;;;;;;8.10;1.98;;;14.60;99.90;;;;;;5079782;28;20115;-46
2023/07/04 00:06:47;;;;;;;9.93;2.67;;;14.50;99.90;;;;;;5074497;28;20029;-48
2023/07/04 00:09:13;;;;;;;8.02;1.70;;;14.60;99.90;;;;;;5070877;28;20036;-43
2023/07/04 00:11:39;;;;;;;11.57;1.88;;;14.50;99.90;;;;;;5072852;28;20036;-45
2023/07/04 00:14:04;;;;;;;7.97;2.00;;;14.50;99.90;;;;;;5067848;28;20112;-47
2023/07/04 00:16:30;;;;;;;7.22;2.08;;;14.50;99.90;;;;;;5067870;28;20028;-49
2023/07/04 00:18:56;;;;;;;9.40;1.98;;;14.40;99.90;;;;;;5070164;28;20024;-43
2023/07/04 00:21:23;;;;;;;10.10;2.08;;;14.40;99.90;;;;;;5069976;28;20486;-46
2023/07/04 00:23:52;;;;;;;5.03;1.65;;;14.40;99.90;;;;;;5072746;28;20048;-48
2023/07/04 00:26:19;;;;;;;8.95;1.67;;;14.40;99.90;;;;;;5064064;28;20469;-49
2023/07/04 00:28:45;;;;;;;2.05;1.52;;;14.40;99.90;;;;;;5071329;28;20532;-45
2023/07/04 00:31:16;;;;;;;10.95;2.70;;;14.40;99.90;;;;;;5069146;28;20369;-44
2023/07/04 00:33:43;;;;;;;6.22;1.77;;;14.40;99.90;;;;;;5069988;28;20107;-53
2023/07/04 00:36:11;;;;;;;5.55;1.48;;;14.40;99.90;;;;;;5069522;28;20063;-44
2023/07/04 00:38:38;;;;;;;4.78;1.38;;;14.40;99.90;;;;;;5069868;28;20505;-49
2023/07/04 00:41:14;;;;;;;;;;;14.40;99.90;;;;;;5069267;28;20039;-46
2023/07/04 00:44:11;;;;;;;6.10;1.90;;;14.20;99.90;;;;;;5072545;28;19908;-46
2023/07/04 00:46:45;;;;;;;3.20;1.48;;;14.10;99.90;;;;;;5071418;28;20349;-44
2023/07/04 00:49:18;;;;;;;4.28;1.10;;;14.00;99.90;;;;;;5071316;28;20035;-43
2023/07/04 00:51:47;;;;;;;6.15;1.90;;;14.00;99.90;;;;;;5072520;28;20024;-47
2023/07/04 00:54:15;;;;;;;7.85;1.88;;;13.80;99.90;;;;;;5067754;28;20028;-44
2023/07/04 00:56:41;;;;;;;20.73;2.05;;;13.80;99.90;;;;;;5069709;28;20032;-43
2023/07/04 00:59:09;;;;;;;5.40;1.40;;;13.70;99.90;;;;;;5059616;28;20099;-46
2023/07/04 01:01:34;;;;;;;9.32;1.20;;;13.60;99.90;;;;;;5070127;28;20029;-44
2023/07/04 01:04:03;;;;;;;9.25;1.23;;;13.60;99.90;;;;;;5068601;28;20027;-43
2023/07/04 01:06:48;;;;;;;1.60;0.75;;;13.60;99.90;;;;;;5060610;28;20505;-47
2023/07/04 01:09:17;;;;;;;2.72;0.88;;;13.60;99.90;;;;;;5067621;28;20106;-43
2023/07/04 01:11:45;;;;;;;3.40;1.40;;;13.60;99.90;;;;;;5071274;28;20025;-49
2023/07/04 01:14:25;;;;;;;2.72;0.90;;;13.60;99.90;;;;;;5070980;28;20100;-43
2023/07/04 01:16:52;;;;;;;10.27;1.52;;;13.70;99.90;;;;;;5059111;28;20040;-47
2023/07/04 01:19:35;;;;;;;7.05;1.17;;;13.70;99.90;;;;;;5070931;28;20024;-47
2023/07/04 01:22:19;;;;;;;5.15;1.25;;;13.70;99.90;;;;;;5071266;28;20032;-47
2023/07/04 01:24:52;;;;;;;4.50;1.35;;;13.70;99.90;;;;;;5071230;28;20097;-44
2023/07/04 01:27:20;;;;;;;1.75;0.95;;;13.70;99.90;;;;;;5071106;28;20393;-44
2023/07/04 01:29:46;;;;;;;4.25;0.98;;;13.70;99.90;;;;;;5071114;28;20024;-46
2023/07/04 01:32:12;;;;;;;11.40;1.50;;;13.70;99.90;;;;;;5068542;28;20488;-47
2023/07/04 01:34:38;;;;;;;3.50;1.48;;;13.70;99.90;;;;;;5071273;28;20032;-44
2023/07/04 01:37:05;;;;;;;2.63;0.90;;;13.70;99.90;;;;;;5072914;28;20028;-48
2023/07/04 01:39:31;;;;;;;2.40;1.08;;;13.70;99.90;;;;;;5075897;28;20024;-48
2023/07/04 01:41:56;;;;;;;6.47;1.90;;;13.70;99.90;;;;;;5075901;28;20040;-48
2023/07/04 01:44:25;;;;;;;5.28;0.88;;;13.70;99.90;;;;;;5075694;28;20060;-42
2023/07/04 01:46:51;;;;;;;1.40;0.90;;;13.60;99.90;;;;;;5076025;28;20477;-52
2023/07/04 01:49:19;;;;;;;2.05;1.05;;;13.60;99.90;;;;;;5072777;28;20025;-45
2023/07/04 01:51:45;;;;;;;;;;;13.60;99.90;;;;;;5076121;28;20020;-46
2023/07/04 01:54:17;;;;;;;6.43;1.50;;;13.60;99.90;;;;;;5075622;28;19911;-46
2023/07/04 01:56:50;;;;;;;4.82;0.90;;;13.60;99.90;;;;;;5075855;28;20086;-45
2023/07/04 01:59:16;;;;;;;4.90;0.93;;;13.60;99.90;;;;;;5073977;28;20035;-46
2023/07/04 02:01:42;;;;;;;8.95;1.33;;;13.60;99.90;;;;;;5075479;28;20024;-47
2023/07/04 02:04:07;;;;;;;3.55;0.90;;;13.60;99.90;;;;;;5072670;28;20485;-48
2023/07/04 02:06:33;;;;;;;5.47;1.33;;;13.60;99.90;;;;;;5074837;28;20024;-42
2023/07/04 02:09:00;;;;;;;2.53;0.90;;;13.60;99.90;;;;;;5073268;28;20481;-48
2023/07/04 02:11:25;;;;;;;5.20;0.90;;;13.60;99.90;;;;;;5075231;28;20024;-46
2023/07/04 02:13:51;;;;;;;1.80;0.68;;;13.60;99.90;;;;;;5072504;28;20032;-43
2023/07/04 02:16:17;;;;;;;3.97;0.93;;;13.60;99.90;;;;;;5055440;28;20104;-60
2023/07/04 02:18:43;;;;;;;3.83;0.95;;;13.60;99.90;;;;;;5068856;28;20427;-44
2023/07/04 02:21:08;;;;;;;3.83;1.35;;;13.50;99.90;;;;;;5072667;28;20020;-49
2023/07/04 02:23:34;;;;;;;7.80;0.90;;;13.50;99.90;;;;;;5069073;28;20028;-44
2023/07/04 02:26:00;;;;;;;2.67;1.23;;;13.50;99.90;;;;;;5071061;28;20016;-47
2023/07/04 02:28:25;;;;;;;6.35;1.20;;;13.50;99.90;;;;;;5074333;28;20496;-45
2023/07/04 02:30:59;;;;;;;6.78;0.90;;;13.50;99.90;;;;;;5074999;28;20017;-46
2023/07/04 02:33:26;;;;;;;6.45;1.15;;;13.50;99.90;;;;;;5064959;28;20033;-48
2023/07/04 02:35:52;;;;;;;5.80;1.10;;;13.50;99.90;;;;;;5070307;28;20119;-60
2023/07/04 02:38:18;;;;;;;4.88;1.20;;;13.50;99.90;;;;;;5074114;28;20028;-51
2023/07/04 02:40:48;;;;;;;5.85;1.48;;;13.50;99.90;;;;;;5073548;28;20078;-46
2023/07/04 02:43:14;;;;;;;6.28;1.45;;;13.50;99.90;;;;;;5074686;28;20024;-45
2023/07/04 02:45:40;;;;;;;8.70;1.17;;;13.50;99.90;;;;;;5073501;28;20028;-48
2023/07/04 02:48:07;;;;;;;8.02;1.48;;;13.50;99.90;;;;;;5072716;28;20059;-47
2023/07/04 02:50:33;;;;;;;5.22;1.20;;;13.50;99.90;;;;;;5073002;28;20031;-52
2023/07/04 02:52:59;;;;;;;2.17;1.30;;;13.50;99.90;;;;;;5074221;28;20393;-47
2023/07/04 02:55:25;;;;;;;6.70;1.00;;;13.50;99.90;;;;;;5074445;28;20027;-50
2023/07/04 02:57:50;;;;;;;6.90;1.23;;;13.50;99.90;;;;;;5070809;28;20554;-51
2023/07/04 03:00:17;;;;;;;3.10;1.35;;;13.50;99.90;;;;;;5073287;28;20025;-51
2023/07/04 03:02:43;;;;;;;4.13;1.23;;;13.50;99.90;;;;;;5073165;28;20071;-51
2023/07/04 03:05:08;;;;;;;9.52;1.33;;;13.40;99.90;;;;;;5071295;28;20839;-49
2023/07/04 03:07:34;;;;;;;10.23;1.30;;;13.40;99.90;;;;;;5074199;28;20017;-44
2023/07/04 03:10:00;;;;;;;6.15;1.08;;;13.40;99.90;;;;;;5072719;28;20055;-45
2023/07/04 03:12:26;;;;;;;6.82;1.35;;;13.40;99.90;;;;;;5074039;28;20453;-49
2023/07/04 03:14:51;;;;;;;2.55;1.10;;;13.40;99.90;;;;;;5072580;28;20033;-68
2023/07/04 03:17:17;;;;;;;4.82;1.35;;;13.50;99.90;;;;;;5072733;28;20035;-41
2023/07/04 03:19:43;;;;;;;1.95;0.90;;;13.50;99.90;;;;;;5073966;28;20058;-48
2023/07/04 03:22:08;;;;;;;4.93;1.40;;;13.50;99.90;;;;;;5069232;28;20585;-53
2023/07/04 03:24:34;;;;;;;5.68;1.38;;;13.50;99.90;;;;;;5073348;28;20120;-47
2023/07/04 03:27:00;;;;;;;2.25;1.27;;;13.50;99.90;;;;;;5072129;28;20021;-53
2023/07/04 03:29:25;;;;;;;1.80;1.08;;;13.60;99.90;;;;;;5072658;28;20013;-51
2023/07/04 03:31:51;;;;;;;5.30;1.15;;;13.60;99.90;;;;;;5060489;28;20028;-53
2023/07/04 03:34:17;;;;;;;2.60;2.15;;;13.60;99.90;;;;;;5053189;28;20059;-52
2023/07/04 03:36:42;;;;;;;3.97;1.33;;;13.60;99.90;;;;;;5068424;28;20024;-53
2023/07/04 03:39:08;;;;;;;5.90;1.33;;;13.60;99.90;;;;;;5069818;28;20032;-56
2023/07/04 03:41:34;;;;;;;2.83;1.38;;;13.60;99.90;;;;;;5073531;28;20439;-52
2023/07/04 03:44:00;;;;;;;6.07;1.52;;;13.60;99.90;;;;;;5073399;28;20040;-55
2023/07/04 03:46:26;;;;;;;13.20;2.00;;;13.70;99.90;;;;;;5072087;28;20081;-55
2023/07/04 03:48:52;;;;;;;3.53;1.30;;;13.60;99.90;;;;;;5072479;28;20427;-55
2023/07/04 03:51:18;;;;;;;2.53;0.95;;;13.70;99.90;;;;;;5071470;28;20017;-53
2023/07/04 03:53:43;;;;;;;3.40;1.10;;;13.70;99.90;;;;;;5073344;28;20020;-52
2023/07/04 03:56:09;;;;;;;11.00;1.10;;;13.70;99.90;;;;;;5072246;28;20520;-55
2023/07/04 03:58:35;;;;;;;2.47;1.40;;;13.60;99.90;;;;;;5073267;28;20606;-54
2023/07/04 04:01:01;;;;;;;5.18;1.35;;;13.70;99.90;;;;;;5071148;28;20380;-52
2023/07/04 04:03:26;;;;;;;8.93;1.52;;;13.70;99.90;;;;;;5072300;28;20029;-50
2023/07/04 04:05:52;;;;;;;6.38;1.75;;;13.70;99.90;;;;;;5071011;28;20029;-74
2023/07/04 04:08:18;;;;;;;7.75;1.80;;;13.70;99.90;;;;;;5072372;28;20020;-51
2023/07/04 04:10:44;;;;;;;1.63;1.15;;;13.70;99.90;;;;;;5073075;28;20028;-52
2023/07/04 04:13:10;;;;;;;4.25;1.60;;;13.80;99.90;;;;;;5070918;28;20035;-52
2023/07/04 04:15:36;;;;;;;4.43;2.30;;;13.80;99.90;;;;;;5071901;28;20480;-54
2023/07/04 04:18:02;;;;;;;7.15;1.40;;;13.80;99.90;;;;;;5071828;28;20086;-51
2023/07/04 04:20:27;;;;;;;4.82;1.13;;;13.90;99.90;;;;;;5071898;28;20020;-53
2023/07/04 04:22:53;;;;;;;10.40;2.05;;;13.90;99.90;;;;;;5072840;28;20037;-49
2023/07/04 04:25:19;;;;;;;5.18;1.38;;;13.90;99.90;;;;;;5072647;28;20396;-50
2023/07/04 04:27:48;;;;;;;2.85;1.20;;;14.00;99.90;;;;;;5071139;28;20059;-53
2023/07/04 04:30:15;;;;;;;8.55;1.40;;;14.00;99.90;;;;;;5072975;28;20016;-53
2023/07/04 04:32:41;;;;;;;3.17;1.30;;;14.00;99.90;;;;;;5070360;28;20024;-54
2023/07/04 04:35:11;;;;;;;6.70;2.00;;;14.00;99.90;;;;;;5072309;28;20104;-49
2023/07/04 04:37:37;;;;;;;6.55;2.53;;;14.00;99.90;;;;;;5072690;28;20024;-51
2023/07/04 04:40:04;;;;;;;6.45;1.92;;;14.10;99.90;;;;;;5071208;28;20554;-49
2023/07/04 04:42:32;;;;;;;7.65;2.22;;;14.10;99.90;;;;;;5070692;28;20056;-50
2023/07/04 04:44:57;;;;;;;1.70;0.90;;;14.10;99.90;;;;;;5070873;28;20108;-50
2023/07/04 04:47:24;;;;;;;4.10;1.13;;;14.10;99.90;;;;;;5067894;28;20104;-52
2023/07/04 04:49:51;;;;;;;3.33;1.35;;;14.10;99.90;;;;;;5072243;28;20024;-50
2023/07/04 04:52:21;;;;;;;2.75;1.50;;;14.10;99.90;;;;;;5069690;28;20416;-43
2023/07/04 04:54:47;;;;;;;7.57;1.30;;;14.20;99.90;;;;;;5068608;28;20021;-48
2023/07/04 04:57:14;;;;;;;4.32;1.77;;;14.20;99.90;;;;;;5061483;28;20138;-48
2023/07/04 04:59:40;;;;;;;3.42;1.00;;;14.20;99.90;;;;;;5072835;28;20436;-50
2023/07/04 05:02:06;;;;;;;5.63;1.67;;;14.20;99.90;;;;;;5066253;28;20104;-47
2023/07/04 05:04:33;;;;;;;8.27;1.27;;;14.30;99.90;;;;;;5070084;28;20043;-72
2023/07/04 05:06:59;;;;;;;2.10;0.98;;;14.30;99.90;;;;;;5069795;28;20412;-51
2023/07/04 05:09:25;;;;;;;2.72;1.50;;;14.30;99.90;;;;;;5070956;28;20023;-47
2023/07/04 05:11:50;;;;;;;11.20;1.90;;;14.30;99.90;;;;;;5073028;28;20128;-47
2023/07/04 05:14:16;;;;;;;5.35;1.20;;;14.30;99.90;;;;;;5076378;28;20107;-51
2023/07/04 05:16:41;;;;;;;4.57;1.00;;;14.40;99.90;;;;;;5075174;28;20036;-51
2023/07/04 05:19:07;;;;;;;7.32;1.75;;;14.40;99.90;;;;;;5075408;28;20025;-50
2023/07/04 05:21:33;;;;;;;6.22;1.10;;;14.30;99.90;;;;;;5074761;28;20031;-51
2023/07/04 05:23:59;;;;;;;3.95;1.38;;;14.30;99.90;;;;;;5075660;28;20048;-47
2023/07/04 05:26:27;;;;;;;14.57;1.90;;;14.40;99.90;;;;;;5076110;28;20020;-49
2023/07/04 05:28:54;;;;;;;6.63;1.52;;;14.50;99.90;;;;;;5074949;28;20116;-55
2023/07/04 05:31:23;;;;;;;6.68;1.48;;;14.50;99.90;;;;;;5074760;28;20019;-46
2023/07/04 05:33:50;;;;;;;5.03;1.42;;;14.60;99.90;;;;;;5075001;28;20059;-46
2023/07/04 05:36:22;;;;;;;11.63;2.30;;;14.70;99.90;;;;;;5073406;28;20138;-48
2023/07/04 05:38:53;;;;;;;4.10;0.90;;;14.70;99.90;;;;;;5074991;28;20029;-49
2023/07/04 05:41:22;;;;;;;20.67;2.83;;;14.80;99.90;;;;;;5075719;28;20103;-51
2023/07/04 05:43:48;;;;;;;4.10;1.40;;;14.90;99.90;;;;;;5075727;28;20025;-51
2023/07/04 05:46:17;;;;;;;9.10;1.48;;;14.90;99.90;;;;;;5074615;28;21094;-46
2023/07/04 05:48:43;;;;;;;11.35;1.80;;;15.00;99.90;;;;;;5073960;28;20040;-45
2023/07/04 05:51:11;;;;;;;13.55;1.90;;;15.10;99.90;;;;;;5073366;28;20492;-47
2023/07/04 05:53:40;;;;;;;14.30;2.00;;;15.30;99.90;;;;;;5074165;28;20431;-47
2023/07/04 05:56:09;;;;;;;12.38;1.67;;;15.40;99.90;;;;;;5074756;28;20094;-48
2023/07/04 05:58:36;;;;;;;10.80;1.60;;;15.50;99.90;;;;;;5075451;28;20511;-49
2023/07/04 06:01:11;;;;;;;5.50;1.20;;;15.50;99.90;;;;;;5074481;28;20059;-49
2023/07/04 06:03:37;;;;;;;2.63;1.17;;;15.60;99.90;;;;;;5071377;28;20043;-59
2023/07/04 06:06:14;;;;;;;5.00;1.10;;;15.70;99.90;;;;;;5071134;28;20027;-59
2023/07/04 06:08:39;;;;;;;7.43;1.65;;;15.80;99.90;;;;;;5070348;28;20028;-60
2023/07/04 06:11:05;;;;;;;7.25;1.10;;;15.90;99.90;;;;;;5072286;28;20500;-50
2023/07/04 06:13:31;;;;;;;7.05;1.83;;;16.10;99.90;;;;;;5074294;28;20092;-50
2023/07/04 06:15:59;;;;;;;3.17;1.50;;;16.40;99.90;;;;;;5072000;28;20035;-66
2023/07/04 06:18:25;;;;;;;3.95;1.17;;;16.70;99.90;;;;;;5075108;28;20108;-49
2023/07/04 06:20:51;;;;;;;17.27;1.98;;;16.80;99.90;;;;;;5070630;28;20104;-52
2023/07/04 06:23:20;;;;;;;8.82;1.65;;;16.80;99.90;;;;;;5073645;28;20133;-57
2023/07/04 06:25:47;;;;;;;10.50;1.40;;;16.80;99.90;;;;;;5073877;28;20519;-64
2023/07/04 06:28:12;;;;;;;9.18;1.77;;;16.60;99.90;;;;;;5074835;28;20027;-53
2023/07/04 06:30:38;;;;;;;11.80;1.63;;;16.60;99.90;;;;;;5074970;28;20024;-55
2023/07/04 06:33:04;;;;;;;6.18;2.00;;;17.00;99.90;;;;;;5073604;28;20447;-56
2023/07/04 06:35:30;;;;;;;7.65;1.90;;;17.60;99.90;;;;;;5074287;28;20048;-56
2023/07/04 06:37:57;;;;;;;11.35;1.75;;;17.80;99.90;;;;;;5072166;28;20056;-49
2023/07/04 06:40:22;;;;;;;4.43;1.45;;;17.90;99.90;;;;;;5071918;28;20868;-56
2023/07/04 06:42:48;;;;;;;6.88;1.52;;;18.00;99.90;;;;;;5063843;28;20104;-53
2023/07/04 06:45:14;;;;;;;6.43;1.08;;;18.00;99.90;;;;;;5054547;28;20100;-55
2023/07/04 06:47:39;;;;;;;2.60;0.93;;;18.00;99.90;;;;;;5066886;28;20020;-50
2023/07/04 06:50:06;;;;;;;3.53;1.60;;;17.80;99.90;;;;;;5073320;28;20020;-61
2023/07/04 06:52:33;;;;;;;7.13;2.45;;;17.80;99.90;;;;;;5074097;28;20477;-61
2023/07/04 06:54:59;;;;;;;2.70;1.02;;;18.10;99.90;;;;;;5070676;28;20385;-61
2023/07/04 06:57:24;;;;;;;10.43;1.88;;;18.30;99.90;;;;;;5074148;28;20027;-60
2023/07/04 06:59:54;;;;;;;3.13;1.17;;;18.30;99.90;;;;;;5067391;28;20528;-56
2023/07/04 07:02:20;;;;;;;4.57;1.55;;;18.20;99.90;;;;;;5062701;28;20377;-59
2023/07/04 07:04:46;;;;;;;5.80;1.10;;;18.10;99.90;;;;;;5065043;28;20029;-59
2023/07/04 07:07:11;;;;;;;6.15;1.23;;;17.90;99.90;;;;;;5071213;28;20025;-58
2023/07/04 07:09:40;;;;;;;7.82;1.73;;;17.70;99.90;;;;;;5071886;28;20031;-59
2023/07/04 07:12:08;;;;;;;6.65;1.67;;;17.50;99.90;;;;;;5070475;28;20021;-58
2023/07/04 07:14:34;;;;;;;8.30;1.70;;;17.30;99.90;;;;;;5067573;28;20502;-60
2023/07/04 07:17:00;;;;;;;8.63;1.65;;;17.20;99.90;;;;;;5071784;28;20028;-60
2023/07/04 07:19:26;;;;;;;7.25;2.17;;;17.00;99.90;;;;;;5072883;28;20579;-57
2023/07/04 07:21:52;;;;;;;4.47;1.48;;;16.90;99.90;;;;;;5087919;28;20048;-58
2023/07/04 07:24:18;;;;;;;9.48;1.52;;;16.80;99.90;;;;;;5057233;28;20498;-58
2023/07/04 07:26:43;;;;;;;5.55;1.50;;;16.80;99.90;;;;;;5060344;28;20078;-57
2023/07/04 07:29:09;;;;;;;6.53;1.25;;;16.70;99.90;;;;;;5073764;28;20028;-56
2023/07/04 07:31:35;;;;;;;8.57;1.63;;;16.70;99.90;;;;;;5070142;28;20570;-48
2023/07/04 07:34:02;;;;;;;8.27;1.55;;;16.60;99.90;;;;;;5072002;28;20206;-51
2023/07/04 07:36:30;;;;;;;5.43;1.48;;;16.70;99.90;;;;;;5073589;28;20025;-45
2023/07/04 07:38:57;;;;;;;4.78;1.42;;;17.40;99.90;;;;;;5072103;28;20023;-50
2023/07/04 07:41:31;;;;;;;7.82;1.45;;;17.80;99.90;;;;;;5071490;28;20032;-47
2023/07/04 07:43:57;;;;;;;3.00;1.02;;;17.60;99.90;;;;;;5069237;28;20480;-50
2023/07/04 07:46:23;;;;;;;7.18;1.83;;;17.50;99.90;;;;;;5073142;28;20048;-47
2023/07/04 07:48:49;;;;;;;7.40;1.75;;;17.50;99.90;;;;;;5072732;28;20035;-47
2023/07/04 07:51:16;;;;;;;10.80;1.90;;;17.40;99.90;;;;;;5069126;28;20057;-47
2023/07/04 07:53:44;;;;;;;3.25;1.17;;;17.20;99.90;;;;;;5072339;28;20024;-52
2023/07/04 07:56:13;;;;;;;5.30;1.50;;;17.20;99.90;;;;;;5071736;28;20081;-47
2023/07/04 07:58:39;;;;;;;8.25;1.45;;;17.10;99.90;;;;;;5071527;28;20089;-48
2023/07/04 08:01:20;;;;;;;7.65;1.48;;;17.10;99.90;;;;;;5068329;28;20095;-58
2023/07/04 08:03:46;;;;;;;8.52;2.10;;;17.30;99.90;;;;;;5071591;28;20037;-58
2023/07/04 08:06:36;;;;;;;14.32;1.55;;;17.30;99.90;;;;;;5062171;28;20024;-54
2023/07/04 08:09:04;;;;;;;13.50;2.10;;;17.30;99.90;;;;;;5072984;28;20063;-57
2023/07/04 08:11:32;;;;;;;2.20;1.17;;;17.30;99.90;;;;;;5073292;28;20016;-58
2023/07/04 08:13:58;;;;;;;10.25;1.77;;;17.40;99.90;;;;;;5067509;28;20035;-57
2023/07/04 08:16:40;;;;;;;6.90;1.90;;;17.40;99.90;;;;;;5072268;28;20024;-58
2023/07/04 08:19:06;;;;;;;8.40;1.70;;;17.50;99.90;;;;;;5070092;28;20028;-58
2023/07/04 08:21:32;;;;;;;8.98;1.45;;;17.60;99.90;;;;;;5071198;28;20048;-56
2023/07/04 08:23:58;;;;;;;6.78;1.52;;;17.70;99.90;;;;;;5065620;28;20132;-54
2023/07/04 08:26:25;;;;;;;3.90;1.20;;;17.70;99.90;;;;;;5069226;28;20059;-57
2023/07/04 08:28:53;;;;;;;7.25;1.30;;;17.70;99.90;;;;;;5072774;28;20100;-67
2023/07/04 08:31:20;;;;;;;6.55;1.55;;;17.80;99.90;;;;;;5071561;28;20077;-62
2023/07/04 08:33:47;;;;;;;3.65;1.23;;;17.80;99.90;;;;;;5068606;28;20109;-58
2023/07/04 08:36:14;;;;;;;10.77;1.85;;;17.80;99.90;;;;;;5072766;28;20032;-57
2023/07/04 08:38:40;;;;;;;;;;;17.80;99.90;;;;;;5067123;28;20025;-56
2023/07/04 08:41:40;;;;;;;10.05;1.95;;;17.90;99.90;;;;;;5064176;28;19916;-57
2023/07/04 08:44:12;;;;;;;5.28;1.67;;;18.00;99.90;;;;;;5060041;28;20047;-62
2023/07/04 08:46:44;;;;;;;3.15;1.52;;;18.20;99.90;;;;;;5068706;28;20031;-66
2023/07/04 08:49:34;;;;;;;11.43;1.65;;;18.30;99.90;;;;;;5069714;28;20032;-64
2023/07/04 08:52:15;;;;;;;7.38;1.38;;;18.40;99.90;;;;;;5069818;28;20392;-58
2023/07/04 08:54:40;;;;;;;5.30;1.38;;;18.50;99.90;;;;;;5072559;28;20437;-56
2023/07/04 08:57:23;;;;;;;8.35;1.30;;;18.50;99.90;;;;;;5071364;28;20056;-58
2023/07/04 09:00:05;;;;;;;6.32;1.52;;;18.50;99.90;;;;;;5070203;28;20029;-57
2023/07/04 09:02:45;;;;;;;5.97;1.30;;;18.50;99.90;;;;;;5051570;28;20482;-58
2023/07/04 09:05:23;;;;;;;8.48;1.42;;;18.50;99.90;;;;;;5068998;28;20040;-58
2023/07/04 09:08:05;;;;;;;6.57;1.42;;;18.60;99.90;;;;;;5065244;28;20039;-57
2023/07/04 09:10:37;;;;;;;11.02;1.35;;;18.80;99.90;;;;;;5069510;28;20021;-58
2023/07/04 09:13:09;;;;;;;5.82;1.08;;;19.40;99.90;;;;;;5070096;28;20017;-57
2023/07/04 09:15:42;;;;;;;8.43;1.98;;;19.90;99.90;;;;;;5071205;28;20028;-57
2023/07/04 09:18:45;;;;;;;4.82;1.02;;;20.10;99.90;;;;;;5067988;28;20389;-59
2023/07/04 09:21:13;;;;;;;10.55;1.95;;;19.90;99.90;;;;;;5068652;28;20494;-58
2023/07/04 09:23:40;;;;;;;10.02;1.33;;;19.50;99.90;;;;;;5068497;28;20496;-58
2023/07/04 09:26:11;;;;;;;7.10;1.30;;;19.30;99.90;;;;;;5072244;28;20024;-58
2023/07/04 09:28:46;;;;;;;8.32;1.45;;;19.00;99.90;;;;;;5063532;28;20044;-59
2023/07/04 09:31:19;;;;;;;10.70;2.65;;;18.80;99.90;;;;;;5058448;28;20033;-58
2023/07/04 09:33:47;;;;;;;4.72;1.35;;;18.60;99.90;;;;;;5067814;28;20132;-59
2023/07/04 09:36:15;;;;;;;8.95;1.27;;;18.60;99.90;;;;;;5068493;28;20028;-57
2023/07/04 09:38:58;;;;;;;7.28;1.45;;;18.70;99.90;;;;;;5066317;28;20522;-58
2023/07/04 09:41:29;;;;;;;7.07;1.38;;;18.90;99.90;;;;;;5070881;28;20037;-58
2023/07/04 09:43:56;;;;;;;4.88;1.60;;;18.90;99.90;;;;;;5068190;28;20107;-55
2023/07/04 09:46:26;;;;;;;5.23;1.63;;;19.00;99.90;;;;;;5068072;28;20025;-59
2023/07/04 09:48:54;;;;;;;4.35;1.05;;;19.00;99.90;;;;;;5069048;28;20274;-57
2023/07/04 09:51:27;;;;;;;5.00;1.65;;;19.10;99.90;;;;;;5069683;28;20380;-57
2023/07/04 09:54:19;;;;;;;7.03;1.30;;;19.20;99.90;;;;;;5069605;28;20021;-59
2023/07/04 09:56:45;;;;;;;8.48;1.98;;;19.40;99.90;;;;;;5064254;28;20037;-58
2023/07/04 09:59:18;;;;;;;7.60;1.13;;;19.60;99.90;;;;;;5072411;28;20039;-61
2023/07/04 10:01:52;;;;;;;5.40;1.35;;;19.70;99.90;;;;;;5073332;28;20028;-60
2023/07/04 10:04:25;;;;;;;5.68;1.55;;;19.70;99.90;;;;;;5072481;28;20028;-59
2023/07/04 10:06:53;;;;;;;11.07;1.15;;;19.60;99.90;;;;;;5074070;28;20024;-61
2023/07/04 10:09:20;;;;;;;6.45;1.65;;;19.70;99.90;;;;;;5074229;28;20473;-55
2023/07/04 10:11:50;;;;;;;3.42;1.10;;;19.70;99.90;;;;;;5075207;28;20021;-62
2023/07/04 10:14:17;;;;;;;11.77;1.10;;;19.70;99.90;;;;;;5073051;28;20032;-61
2023/07/04 10:16:52;;;;;;;7.72;1.75;;;19.80;99.90;;;;;;5071869;28;20036;-59
2023/07/04 10:19:23;;;;;;;3.97;1.08;;;19.70;99.90;;;;;;5072583;28;20107;-61
2023/07/04 10:21:51;;;;;;;3.53;1.40;;;19.50;99.90;;;;;;5074024;28;20024;-63
2023/07/04 10:24:23;;;;;;;5.57;1.40;;;19.30;99.90;;;;;;5069053;28;20044;-57
2023/07/04 10:26:57;;;;;;;4.72;1.08;;;19.10;99.90;;;;;;5070920;28;20021;-63
2023/07/04 10:29:35;;;;;;;4.15;1.35;;;19.00;99.90;;;;;;5054136;28;20017;-61
2023/07/04 10:32:08;;;;;;;3.15;1.20;;;18.80;99.90;;;;;;5068204;28;20051;-60
2023/07/04 10:34:36;;;;;;;5.18;1.08;;;18.70;99.90;;;;;;5068731;28;20642;-62
2023/07/04 10:37:03;;;;;;;4.13;0.93;;;18.60;99.90;;;;;;5072289;28;20031;-57
2023/07/04 10:39:31;;;;;;;;;;;18.60;99.90;;;;;;5073468;28;20020;-62
2023/07/04 10:42:13;;;;;;;12.55;1.27;;;18.60;99.90;;;;;;5073325;28;19912;-63
2023/07/04 10:44:41;;;;;;;5.38;1.63;;;18.80;99.90;;;;;;5074940;28;20115;-63
2023/07/04 10:47:11;;;;;;;;;;;19.30;99.90;;;;;;5070901;28;20112;-61
2023/07/04 10:49:46;;;;;;;4.25;1.25;;;19.70;99.90;;;;;;5070840;28;20361;-61
2023/07/04 10:52:24;;;;;;;8.77;1.30;;;20.00;99.90;;;;;;5069356;28;20536;-62
2023/07/04 10:54:49;;;;;;;5.65;1.13;;;20.20;99.90;;;;;;5074381;28;20078;-60
2023/07/04 10:57:28;;;;;;;3.25;1.02;;;20.20;99.90;;;;;;5072258;28;20032;-61
2023/07/04 10:59:59;;;;;;;5.70;1.27;;;20.20;99.90;;;;;;5071507;28;20121;-59
2023/07/04 11:02:36;;;;;;;5.05;1.13;;;20.40;99.90;;;;;;5067143;28;20029;-58
2023/07/04 11:05:13;;;;;;;5.27;1.43;;;20.60;99.90;;;;;;5071889;28;20485;-58
2023/07/04 11:07:42;;;;;;;5.43;2.03;;;20.40;99.90;;;;;;5072024;28;20024;-58
2023/07/04 11:10:10;;;;;;;4.18;1.58;;;20.30;99.90;;;;;;5068476;28;20023;-59
2023/07/04 11:12:38;;;;;;;9.80;1.63;;;20.30;99.90;;;;;;5068049;28;20029;-60
2023/07/04 11:15:08;;;;;;;6.03;1.50;;;20.30;99.90;;;;;;5069584;28;20024;-57
2023/07/04 11:17:36;;;;;;;5.10;0.95;;;20.20;99.90;;;;;;5073892;28;20029;-61
2023/07/04 11:20:14;;;;;;;6.35;0.95;;;20.40;99.90;;;;;;5068284;28;20074;-61
2023/07/04 11:22:52;;;;;;;5.38;1.00;;;20.70;99.90;;;;;;5073729;28;20491;-61
2023/07/04 11:25:36;;;;;;;5.45;1.15;;;20.80;99.90;;;;;;5071012;28;20485;-58
2023/07/04 11:28:36;;;;;;;8.93;1.40;;;20.80;99.90;;;;;;5068869;28;20088;-62
2023/07/04 11:31:21;;;;;;;3.95;0.88;;;20.70;99.90;;;;;;5071026;28;20036;-65
2023/07/04 11:33:52;;;;;;;1.15;1.02;;;20.70;99.90;;;;;;5070646;28;20027;-63
2023/07/04 11:36:33;;;;;;;1.63;1.20;;;20.90;99.90;;;;;;5068750;28;20029;-63
2023/07/04 11:39:22;;;;;;;5.38;1.60;;;21.10;99.90;;;;;;5071760;28;20223;-62
2023/07/04 11:41:48;;;;;;;6.82;1.30;;;21.10;99.90;;;;;;5067630;28;20535;-62
2023/07/04 11:44:28;;;;;;;2.53;0.90;;;21.00;99.90;;;;;;5067975;28;20470;-58
2023/07/04 11:47:03;;;;;;;6.50;1.48;;;20.80;99.90;;;;;;5072641;28;20086;-60
2023/07/04 11:49:31;;;;;;;1.25;0.95;;;20.50;99.90;;;;;;5072904;28;20036;-58
2023/07/04 11:52:33;;;;;;;4.60;0.98;;;20.40;99.90;;;;;;5072961;28;20031;-59
2023/07/04 11:55:08;;;;;;;4.70;1.00;;;20.50;99.90;;;;;;5072496;28;20033;-60
2023/07/04 11:57:59;;;;;;;5.00;1.45;;;20.60;99.90;;;;;;5072906;28;20099;-61
2023/07/04 12:00:30;;;;;;;5.82;1.40;;;20.70;99.90;;;;;;5073480;28;20067;-64
2023/07/04 12:03:18;;;;;;;1.48;0.85;;;20.80;99.90;;;;;;5072210;28;20032;-60
2023/07/04 12:05:44;;;;;;;;;;;20.70;99.90;;;;;;5072190;28;20028;-56
2023/07/04 12:08:36;;;;;;;4.43;1.45;;;20.80;99.90;;;;;;5072697;28;19911;-64
2023/07/04 12:11:05;;;;;;;7.10;1.20;;;20.80;99.90;;;;;;5076173;28;20123;-63
2023/07/04 12:13:34;;;;;;;7.03;1.35;;;20.80;99.90;;;;;;5070949;28;20099;-62
2023/07/04 12:16:02;;;;;;;9.48;1.63;;;20.80;99.90;;;;;;5072900;28;20031;-62
2023/07/04 12:18:32;;;;;;;2.55;1.27;;;20.80;99.90;;;;;;5072898;28;20035;-59
2023/07/04 12:20:58;;;;;;;7.55;1.30;;;20.80;99.90;;;;;;5074270;28;20143;-53
2023/07/04 12:23:24;;;;;;;4.10;1.00;;;21.10;99.90;;;;;;5071493;28;20029;-66
2023/07/04 12:25:52;;;;;;;2.20;0.88;;;21.50;99.90;;;;;;5074410;28;20052;-58
2023/07/04 12:28:24;;;;;;;2.13;0.80;;;21.90;99.90;;;;;;5071458;28;20074;-61
2023/07/04 12:30:59;;;;;;;3.53;1.20;;;22.10;99.90;;;;;;5072864;28;20017;-60
2023/07/04 12:33:30;;;;;;;4.25;0.90;;;22.10;99.90;;;;;;5071540;28;20032;-61
2023/07/04 12:36:06;;;;;;;3.65;1.30;;;22.30;99.90;;;;;;5071845;28;20481;-58
2023/07/04 12:38:33;;;;;;;3.53;1.13;;;22.40;99.90;;;;;;5071505;28;20448;-59
2023/07/04 12:41:00;;;;;;;3.38;0.88;;;22.50;99.90;;;;;;5066027;28;20020;-52
2023/07/04 12:43:30;;;;;;;3.88;1.05;;;22.50;99.90;;;;;;5070160;28;20036;-61
2023/07/04 12:46:14;;;;;;;4.55;1.20;;;22.40;99.90;;;;;;5072656;28;20016;-57
2023/07/04 12:48:41;;;;;;;3.67;0.98;;;22.30;99.90;;;;;;5070225;28;20028;-58
2023/07/04 12:51:13;;;;;;;4.00;1.30;;;22.30;99.90;;;;;;5070221;28;20021;-63
2023/07/04 12:53:40;;;;;;;1.05;0.85;;;22.10;99.90;;;;;;5073147;28;20033;-61
2023/07/04 12:56:10;;;;;;;2.72;0.85;;;22.00;99.90;;;;;;5069965;28;20036;-59
2023/07/04 12:58:40;;;;;;;7.40;1.33;;;22.30;99.90;;;;;;5071406;28;20380;-61
2023/07/04 13:01:08;;;;;;;1.58;0.68;;;22.30;99.60;;;;;;5065893;28;20027;-61